Time;durP1;ratioP1;P1;durP2;ratioP2;P2;SDS_P1;SDS_P2;PMS_P1;PMS_P2;Temp;Humidity;BMP_temperature;BMP_pressure;BME280_temperature;BME280_humidity;BME280_pressure;Samples;Min_cycle;Max_cycle;Signal;HPM_P1;HPM_P2
2023/07/06 00:02:00;;;;;;;1999.90;999.90;;;23.20;87.80;;;;;;5088864;28;20024;-71
2023/07/06 00:04:28;;;;;;;1999.90;999.90;;;23.40;88.00;;;;;;5093711;28;20051;-70
2023/07/06 00:06:55;;;;;;;1999.90;999.90;;;23.40;88.00;;;;;;5095726;28;20038;-70
2023/07/06 00:09:23;;;;;;;1999.90;999.90;;;23.50;87.20;;;;;;5089869;28;20437;-72
2023/07/06 00:11:50;;;;;;;1999.90;999.90;;;23.60;88.10;;;;;;5086482;28;20483;-69
2023/07/06 00:14:17;;;;;;;1999.90;999.90;;;23.90;87.90;;;;;;5088929;28;20024;-70
2023/07/06 00:16:51;;;;;;;1999.90;999.90;;;24.30;86.80;;;;;;5092968;28;20338;-71
2023/07/06 00:19:19;;;;;;;1999.90;999.90;;;24.40;86.20;;;;;;5095353;28;20142;-71
2023/07/06 00:21:49;;;;;;;1999.90;999.90;;;24.50;86.80;;;;;;5084251;28;20032;-70
2023/07/06 00:24:17;;;;;;;1999.90;999.90;;;24.60;86.90;;;;;;5093273;28;20036;-70
2023/07/06 00:26:45;;;;;;;1999.90;999.90;;;24.80;85.40;;;;;;5097650;28;20028;-71
2023/07/06 00:29:15;;;;;;;1999.90;999.90;;;25.20;84.30;;;;;;5096871;28;20051;-70
2023/07/06 00:31:51;;;;;;;1999.90;999.90;;;25.40;83.40;;;;;;5094054;28;20513;-70
2023/07/06 00:34:19;;;;;;;1999.90;999.90;;;24.90;84.20;;;;;;5097768;28;20062;-71
2023/07/06 00:36:50;;;;;;;1999.90;999.90;;;25.00;85.20;;;;;;5087806;28;20030;-71
2023/07/06 00:39:17;;;;;;;1999.90;999.90;;;25.00;83.90;;;;;;5096711;28;20051;-70
2023/07/06 00:41:45;;;;;;;1999.90;999.90;;;25.40;82.90;;;;;;5092342;28;20050;-70
2023/07/06 00:44:49;;;;;;;1999.90;999.90;;;25.50;82.20;;;;;;5096176;28;20379;-70
2023/07/06 00:47:29;;;;;;;1999.90;999.90;;;25.60;83.10;;;;;;5093878;28;20028;-70
2023/07/06 00:50:02;;;;;;;1999.90;999.90;;;25.80;84.30;;;;;;5082652;28;20056;-70
2023/07/06 00:52:30;;;;;;;1999.90;999.90;;;25.70;83.50;;;;;;5092800;28;20024;-71
2023/07/06 00:54:59;;;;;;;1999.90;999.90;;;26.10;81.20;;;;;;5092706;28;20114;-70
2023/07/06 00:57:26;;;;;;;1999.90;999.90;;;25.90;79.20;;;;;;5091615;28;20055;-71
2023/07/06 00:59:56;;;;;;;1999.90;999.90;;;25.60;80.60;;;;;;5091355;28;20036;-71
2023/07/06 01:02:23;;;;;;;1999.90;999.90;;;25.70;81.70;;;;;;5086601;28;20069;-71
2023/07/06 01:04:51;;;;;;;1999.90;999.90;;;25.90;82.80;;;;;;5087025;28;20046;-71
2023/07/06 01:07:23;;;;;;;1999.90;999.90;;;26.40;79.70;;;;;;5088774;28;20020;-71
2023/07/06 01:09:52;;;;;;;1999.90;999.90;;;26.30;80.00;;;;;;5081545;28;20566;-70
2023/07/06 01:12:21;;;;;;;1999.90;999.90;;;26.40;80.20;;;;;;5088727;28;20533;-70
2023/07/06 01:14:49;;;;;;;1999.90;999.90;;;26.50;76.90;;;;;;5094889;27;20115;-70
2023/07/06 01:17:50;;;;;;;1999.90;999.90;;;26.30;79.00;;;;;;5094850;28;20083;-70
2023/07/06 01:20:27;;;;;;;1999.90;999.90;;;26.50;78.80;;;;;;5078453;28;20028;-72
2023/07/06 01:23:21;;;;;;;1999.90;999.90;;;27.00;78.00;;;;;;5083561;28;20486;-71
2023/07/06 01:25:58;;;;;;;1999.90;999.90;;;27.10;77.40;;;;;;5087451;28;20036;-71
2023/07/06 01:28:32;;;;;;;1999.90;999.90;;;27.20;77.90;;;;;;5090980;28;20024;-71
2023/07/06 01:31:37;;;;;;;1999.90;999.90;;;27.70;76.70;;;;;;5083590;28;20036;-70
2023/07/06 01:34:29;;;;;;;1999.90;999.90;;;27.80;77.80;;;;;;5085442;28;20544;-71
2023/07/06 01:37:14;;;;;;;1999.90;999.90;;;28.20;74.80;;;;;;5092912;28;20074;-71
2023/07/06 01:39:42;;;;;;;1999.90;999.90;;;27.90;74.80;;;;;;5090856;28;20119;-71
2023/07/06 01:42:09;;;;;;;1999.90;999.90;;;27.70;75.30;;;;;;5096087;28;20089;-71
2023/07/06 01:44:38;;;;;;;1999.90;999.90;;;27.50;75.90;;;;;;5096355;28;20502;-71
2023/07/06 01:47:06;;;;;;;1999.90;999.90;;;27.60;76.70;;;;;;5092705;28;20097;-70
2023/07/06 01:49:33;;;;;;;1999.90;999.90;;;27.50;75.00;;;;;;5101571;28;20032;-70
2023/07/06 01:52:04;;;;;;;1999.90;999.90;;;27.30;76.00;;;;;;5093074;28;20079;-69
2023/07/06 01:54:43;;;;;;;1999.90;999.90;;;27.20;76.60;;;;;;5092410;28;20031;-72
2023/07/06 01:57:19;;;;;;;1999.90;999.90;;;27.40;76.70;;;;;;5092207;28;20107;-70
2023/07/06 01:59:50;;;;;;;1999.90;999.90;;;27.50;75.50;;;;;;5090988;28;20032;-70
2023/07/06 02:02:19;;;;;;;1999.90;999.90;;;27.90;75.80;;;;;;5097814;28;20054;-70
2023/07/06 02:04:47;;;;;;;1999.90;999.90;;;27.90;75.80;;;;;;5090549;28;20047;-72
2023/07/06 02:07:20;;;;;;;1999.90;999.90;;;28.10;74.20;;;;;;5094781;28;20031;-70
2023/07/06 02:09:51;;;;;;;1999.90;999.90;;;27.90;74.20;;;;;;5092245;28;20033;-70
2023/07/06 02:12:18;;;;;;;1999.90;999.90;;;27.80;75.60;;;;;;5094068;28;20032;-72
2023/07/06 02:14:48;;;;;;;1999.90;999.90;;;27.60;75.40;;;;;;5092640;28;20043;-70
2023/07/06 02:17:15;;;;;;;1999.90;999.90;;;27.90;75.10;;;;;;5087338;28;20447;-70
2023/07/06 02:19:46;;;;;;;1999.90;999.90;;;28.20;75.20;;;;;;5096676;28;20034;-70
2023/07/06 02:22:13;;;;;;;1999.90;999.90;;;28.30;74.30;;;;;;5087960;28;20031;-69
2023/07/06 02:24:40;;;;;;;1999.90;999.90;;;28.40;75.40;;;;;;5091882;28;20119;-71
2023/07/06 02:27:10;;;;;;;1999.90;999.90;;;28.50;75.70;;;;;;5090557;28;20038;-70
2023/07/06 02:29:37;;;;;;;1999.90;999.90;;;28.40;74.50;;;;;;5089138;28;20028;-70
2023/07/06 02:32:05;;;;;;;1999.90;999.90;;;28.20;75.20;;;;;;5094890;28;20107;-70
2023/07/06 02:34:32;;;;;;;1999.90;999.90;;;28.10;74.80;;;;;;5103276;28;20023;-70
2023/07/06 02:37:00;;;;;;;1999.90;999.90;;;28.10;74.50;;;;;;5095953;28;20024;-72
2023/07/06 02:39:27;;;;;;;1999.90;999.90;;;28.00;74.90;;;;;;5089054;28;20429;-71
2023/07/06 02:41:56;;;;;;;1999.90;999.90;;;27.70;74.40;;;;;;5087802;28;20510;-70
2023/07/06 02:44:24;;;;;;;1999.90;999.90;;;27.50;74.70;;;;;;5088581;28;20071;-69
2023/07/06 02:46:52;;;;;;;1999.90;999.90;;;27.10;74.90;;;;;;5086672;28;20099;-70
2023/07/06 02:49:20;;;;;;;1999.90;999.90;;;26.80;74.90;;;;;;5084265;28;20024;-68
2023/07/06 02:51:47;;;;;;;1999.90;999.90;;;26.60;74.40;;;;;;5091565;28;20036;-71
2023/07/06 02:54:15;;;;;;;1999.90;999.90;;;26.30;76.00;;;;;;5091445;28;20058;-69
2023/07/06 02:56:45;;;;;;;1999.90;999.90;;;26.00;74.40;;;;;;5085549;28;20021;-69
2023/07/06 02:59:13;;;;;;;1999.90;999.90;;;25.50;75.90;;;;;;5092946;28;20040;-69
2023/07/06 03:01:40;;;;;;;1999.90;999.90;;;25.10;76.30;;;;;;5090616;28;20032;-70
2023/07/06 03:04:11;;;;;;;1999.90;999.90;;;24.80;75.80;;;;;;5088659;28;20139;-69
2023/07/06 03:06:38;;;;;;;1999.90;999.90;;;24.60;77.00;;;;;;5090979;28;20034;-70
2023/07/06 03:09:09;;;;;;;1999.90;999.90;;;24.40;75.90;;;;;;5087240;28;20024;-71
2023/07/06 03:11:38;;;;;;;1999.90;999.90;;;24.00;77.60;;;;;;5086824;28;20111;-71
2023/07/06 03:14:05;;;;;;;1999.90;999.90;;;23.80;77.70;;;;;;5087573;28;20020;-69
2023/07/06 03:16:39;;;;;;;1999.90;999.90;;;23.70;79.40;;;;;;5093231;28;20563;-69
2023/07/06 03:19:08;;;;;;;1999.90;999.90;;;23.60;79.10;;;;;;5092863;28;20032;-69
2023/07/06 03:21:38;;;;;;;1999.90;999.90;;;23.60;80.20;;;;;;5093799;28;20421;-70
2023/07/06 03:24:09;;;;;;;1999.90;999.90;;;23.60;79.40;;;;;;5089562;28;20054;-70
2023/07/06 03:26:39;;;;;;;1999.90;999.90;;;23.50;79.50;;;;;;5088841;28;20028;-71
2023/07/06 03:29:08;;;;;;;1999.90;999.90;;;23.30;78.60;;;;;;5090702;28;20478;-71
2023/07/06 03:31:36;;;;;;;1999.90;999.90;;;22.80;78.60;;;;;;5089879;28;20028;-70
2023/07/06 03:34:07;;;;;;;1999.90;999.90;;;22.20;78.90;;;;;;5096088;28;20032;-70
2023/07/06 03:36:35;;;;;;;1999.90;999.90;;;21.60;79.60;;;;;;5085582;28;20445;-70
2023/07/06 03:39:03;;;;;;;1999.90;999.90;;;21.20;80.80;;;;;;5090105;28;20035;-71
2023/07/06 03:41:30;;;;;;;1999.90;999.90;;;20.80;81.70;;;;;;5091736;28;20032;-71
2023/07/06 03:43:58;;;;;;;1999.90;999.90;;;20.40;82.10;;;;;;5098740;28;20027;-71
2023/07/06 03:46:32;;;;;;;1999.90;999.90;;;20.10;83.00;;;;;;5096424;28;20046;-70
2023/07/06 03:48:59;;;;;;;1999.90;999.90;;;19.90;84.60;;;;;;5099203;28;20084;-70
2023/07/06 03:51:26;;;;;;;1999.90;999.90;;;19.80;84.20;;;;;;5097179;28;20360;-70
2023/07/06 03:53:54;;;;;;;1999.90;999.90;;;19.70;84.20;;;;;;5093758;28;20024;-70
2023/07/06 03:56:27;;;;;;;1999.90;999.90;;;19.60;83.10;;;;;;5091710;28;20030;-71
2023/07/06 03:59:01;;;;;;;1999.90;999.90;;;19.30;81.50;;;;;;5098448;28;20034;-69
2023/07/06 04:01:33;;;;;;;1999.90;999.90;;;19.00;82.60;;;;;;5086857;28;20024;-69
2023/07/06 04:04:01;;;;;;;1999.90;999.90;;;18.90;82.60;;;;;;5094393;28;20093;-69
2023/07/06 04:06:29;;;;;;;1999.90;999.90;;;18.90;82.70;;;;;;5088799;28;20032;-69
2023/07/06 04:08:57;;;;;;;1999.90;999.90;;;18.90;83.00;;;;;;5096653;28;20028;-69
2023/07/06 04:11:24;;;;;;;1999.90;999.90;;;18.80;82.30;;;;;;5082684;28;20043;-68
2023/07/06 04:13:59;;;;;;;1999.90;999.90;;;18.90;83.10;;;;;;5086531;28;20024;-71
2023/07/06 04:16:27;;;;;;;1999.90;999.90;;;18.90;82.10;;;;;;5078595;28;20036;-69
2023/07/06 04:18:57;;;;;;;1999.90;999.90;;;18.80;81.90;;;;;;5096552;28;20030;-69
2023/07/06 04:21:24;;;;;;;1999.90;999.90;;;18.80;81.60;;;;;;5082899;28;20026;-70
2023/07/06 04:23:52;;;;;;;1999.90;999.90;;;18.80;81.70;;;;;;5087715;28;20032;-69
2023/07/06 04:26:21;;;;;;;1999.90;999.90;;;18.50;80.80;;;;;;5090642;28;20549;-71
2023/07/06 04:28:49;;;;;;;1999.90;999.90;;;18.30;81.50;;;;;;5087841;28;20044;-70
2023/07/06 04:31:18;;;;;;;1999.90;999.90;;;18.20;81.50;;;;;;5085879;28;20088;-69
2023/07/06 04:33:49;;;;;;;1999.90;999.90;;;18.10;82.10;;;;;;5085652;28;20636;-69
2023/07/06 04:36:18;;;;;;;1999.90;999.90;;;18.10;81.70;;;;;;5086489;28;20063;-70
2023/07/06 04:38:46;;;;;;;1999.90;999.90;;;17.90;82.70;;;;;;5086456;28;20077;-70
2023/07/06 04:41:13;;;;;;;1999.90;999.90;;;18.00;82.60;;;;;;5082446;28;20028;-71
2023/07/06 04:43:41;;;;;;;1999.90;999.90;;;17.90;82.60;;;;;;5086678;28;20030;-69
2023/07/06 04:46:08;;;;;;;1999.90;999.90;;;17.80;82.60;;;;;;5083111;28;20371;-70
2023/07/06 04:48:36;;;;;;;1999.90;999.90;;;17.70;82.80;;;;;;5086280;28;20024;-70
2023/07/06 04:51:03;;;;;;;1999.90;999.90;;;17.60;82.80;;;;;;5078557;28;20545;-69
2023/07/06 04:53:32;;;;;;;1999.90;999.90;;;17.40;83.30;;;;;;5087145;28;20024;-72
2023/07/06 04:56:00;;;;;;;1999.90;999.90;;;17.40;83.10;;;;;;5087108;28;20523;-71
2023/07/06 04:58:28;;;;;;;1999.90;999.90;;;17.50;84.10;;;;;;5092326;28;20036;-72
2023/07/06 05:00:56;;;;;;;1999.90;999.90;;;17.40;83.40;;;;;;5086953;28;20024;-70
2023/07/06 05:03:23;;;;;;;1999.90;999.90;;;17.50;83.10;;;;;;5084983;28;20089;-72
2023/07/06 05:05:51;;;;;;;1999.90;999.90;;;17.50;82.80;;;;;;5091545;28;20035;-69
2023/07/06 05:08:21;;;;;;;1999.90;999.90;;;17.50;82.10;;;;;;5081625;28;20067;-71
2023/07/06 05:10:53;;;;;;;1999.90;999.90;;;17.30;81.90;;;;;;5086703;28;20027;-71
2023/07/06 05:13:22;;;;;;;1999.90;999.90;;;17.30;82.00;;;;;;5084114;28;20024;-70
2023/07/06 05:15:50;;;;;;;1999.90;999.90;;;17.40;82.50;;;;;;5088475;28;20027;-72
2023/07/06 05:18:19;;;;;;;1999.90;999.90;;;17.50;82.40;;;;;;5090186;28;20036;-71
2023/07/06 05:20:51;;;;;;;1999.90;999.90;;;17.50;81.60;;;;;;5082791;28;20039;-71
2023/07/06 05:23:22;;;;;;;1999.90;999.90;;;17.50;82.00;;;;;;5090083;28;20494;-73
2023/07/06 05:25:54;;;;;;;1999.90;999.90;;;17.30;82.30;;;;;;5087898;28;20126;-69
2023/07/06 05:28:21;;;;;;;1999.90;999.90;;;17.20;81.70;;;;;;5088826;28;20031;-69
2023/07/06 05:30:49;;;;;;;1999.90;999.90;;;17.10;82.70;;;;;;5083213;28;20044;-70
2023/07/06 05:33:17;;;;;;;1999.90;999.90;;;17.00;82.50;;;;;;5095044;28;20020;-69
2023/07/06 05:35:45;;;;;;;1999.90;999.90;;;17.00;82.90;;;;;;5092655;28;20035;-70
2023/07/06 05:38:13;;;;;;;1999.90;999.90;;;16.80;83.60;;;;;;5089044;28;20042;-69
2023/07/06 05:40:42;;;;;;;1999.90;999.90;;;16.80;83.40;;;;;;5087496;28;20020;-70
2023/07/06 05:43:12;;;;;;;1999.90;999.90;;;16.70;83.70;;;;;;5091613;28;20406;-69
2023/07/06 05:45:40;;;;;;;1999.90;999.90;;;16.80;83.50;;;;;;5090210;28;20436;-70
2023/07/06 05:48:07;;;;;;;1999.90;999.90;;;16.80;83.60;;;;;;5098292;28;20070;-70
2023/07/06 05:50:34;;;;;;;1999.90;999.90;;;16.90;83.70;;;;;;5087954;28;20032;-70
2023/07/06 05:53:02;;;;;;;1999.90;999.90;;;17.00;84.10;;;;;;5092547;28;20025;-70
2023/07/06 05:55:29;;;;;;;1999.90;999.90;;;17.00;83.40;;;;;;5091893;28;20023;-70
2023/07/06 05:57:56;;;;;;;1999.90;999.90;;;17.10;82.80;;;;;;5087071;28;20042;-69
2023/07/06 06:00:25;;;;;;;1999.90;999.90;;;17.10;83.20;;;;;;5083974;28;20028;-69
2023/07/06 06:02:52;;;;;;;1999.90;999.90;;;17.10;82.50;;;;;;5089843;28;20024;-69
2023/07/06 06:05:19;;;;;;;1999.90;999.90;;;16.90;82.70;;;;;;5089046;28;20376;-69
2023/07/06 06:07:46;;;;;;;1999.90;999.90;;;16.80;83.70;;;;;;5092958;28;20020;-69
2023/07/06 06:10:14;;;;;;;1999.90;999.90;;;16.80;83.70;;;;;;5077024;28;20024;-68
2023/07/06 06:12:44;;;;;;;1999.90;999.90;;;16.80;83.80;;;;;;5087605;28;20078;-69
2023/07/06 06:15:12;;;;;;;1999.90;999.90;;;16.70;84.20;;;;;;5087728;28;20024;-70
2023/07/06 06:17:40;;;;;;;1999.90;999.90;;;16.70;84.70;;;;;;5089570;28;20502;-72
2023/07/06 06:20:08;;;;;;;1999.90;999.90;;;16.70;86.00;;;;;;5084544;28;20621;-72
2023/07/06 06:22:36;;;;;;;1999.90;999.90;;;16.70;84.70;;;;;;5096012;28;20084;-69
2023/07/06 06:25:04;;;;;;;1999.90;999.90;;;16.70;85.20;;;;;;5085368;28;20028;-71
2023/07/06 06:27:32;;;;;;;1999.90;999.90;;;16.60;85.10;;;;;;5080622;28;20017;-71
2023/07/06 06:30:00;;;;;;;1999.90;999.90;;;16.50;85.50;;;;;;5079401;28;20101;-71
2023/07/06 06:32:29;;;;;;;1999.90;999.90;;;16.40;86.30;;;;;;5092236;28;20089;-71
2023/07/06 06:34:56;;;;;;;1999.90;999.90;;;16.30;86.70;;;;;;5085916;28;20028;-69
2023/07/06 06:37:24;;;;;;;1999.90;999.90;;;16.20;86.60;;;;;;5089380;28;20078;-70
2023/07/06 06:39:51;;;;;;;1999.90;999.90;;;16.10;86.50;;;;;;5089025;28;20031;-70
2023/07/06 06:42:19;;;;;;;1999.90;999.90;;;16.00;86.70;;;;;;5100943;28;20064;-69
2023/07/06 06:44:46;;;;;;;1999.90;999.90;;;15.80;87.10;;;;;;5096111;28;20029;-71
2023/07/06 06:47:13;;;;;;;1999.90;999.90;;;15.60;87.40;;;;;;5090310;28;20023;-71
2023/07/06 06:49:42;;;;;;;1999.90;999.90;;;15.40;87.90;;;;;;5096082;28;20055;-71
2023/07/06 06:52:10;;;;;;;1999.90;999.90;;;15.20;88.60;;;;;;5093631;28;20100;-70
2023/07/06 06:54:38;;;;;;;1999.90;999.90;;;15.00;89.50;;;;;;5092525;28;20085;-69
2023/07/06 06:57:05;;;;;;;1999.90;999.90;;;14.80;90.30;;;;;;5092804;28;20112;-69
2023/07/06 06:59:35;;;;;;;1999.90;999.90;;;14.60;90.40;;;;;;5093419;28;20022;-70
2023/07/06 07:02:02;;;;;;;1999.90;999.90;;;14.50;90.60;;;;;;5084837;28;20072;-70
2023/07/06 07:04:31;;;;;;;1999.90;999.90;;;14.30;90.90;;;;;;5086374;28;20494;-71
2023/07/06 07:07:03;;;;;;;1999.90;999.90;;;14.20;91.40;;;;;;5088642;28;20761;-70
2023/07/06 07:09:30;;;;;;;1999.90;999.90;;;14.10;91.90;;;;;;5088941;28;20111;-70
2023/07/06 07:11:57;;;;;;;1999.90;999.90;;;14.00;91.50;;;;;;5085615;28;20354;-70
2023/07/06 07:14:25;;;;;;;1999.90;999.90;;;14.00;91.30;;;;;;5093634;28;20032;-70
2023/07/06 07:16:52;;;;;;;1999.90;999.90;;;13.90;91.50;;;;;;5094471;28;20439;-70
2023/07/06 07:19:21;;;;;;;1999.90;999.90;;;13.80;91.80;;;;;;5089984;28;20039;-70
2023/07/06 07:21:50;;;;;;;1999.90;999.90;;;13.80;91.90;;;;;;5092739;28;20463;-71
2023/07/06 07:24:17;;;;;;;1999.90;999.90;;;13.70;92.10;;;;;;5094227;28;20438;-71
2023/07/06 07:26:48;;;;;;;1999.90;999.90;;;13.60;92.30;;;;;;5089046;28;20060;-71
2023/07/06 07:29:16;;;;;;;1999.90;999.90;;;13.60;92.40;;;;;;5095806;28;20026;-71
2023/07/06 07:31:43;;;;;;;1999.90;999.90;;;13.50;92.50;;;;;;5089037;28;20362;-71
2023/07/06 07:34:14;;;;;;;1999.90;999.90;;;13.50;92.50;;;;;;5097376;28;20510;-70
2023/07/06 07:36:41;;;;;;;1999.90;999.90;;;13.40;92.70;;;;;;5095163;28;20040;-72
2023/07/06 07:39:09;;;;;;;1999.90;999.90;;;13.40;92.90;;;;;;5089227;28;20020;-71
2023/07/06 07:41:37;;;;;;;1999.90;999.90;;;13.40;92.90;;;;;;5089304;28;20035;-70
2023/07/06 07:44:06;;;;;;;1999.90;999.90;;;13.40;92.90;;;;;;5094699;28;20058;-71
2023/07/06 07:46:33;;;;;;;1999.90;999.90;;;13.50;92.90;;;;;;5085929;28;20043;-71
2023/07/06 07:49:01;;;;;;;1999.90;999.90;;;13.50;93.00;;;;;;5093014;28;20024;-70
2023/07/06 07:51:30;;;;;;;1999.90;999.90;;;13.60;93.00;;;;;;5092988;28;20042;-72
2023/07/06 07:53:57;;;;;;;1999.90;999.90;;;13.60;93.10;;;;;;5089983;28;20405;-71
2023/07/06 07:56:27;;;;;;;1999.90;999.90;;;13.60;93.00;;;;;;5084082;28;20032;-72
2023/07/06 07:58:55;;;;;;;1999.90;999.90;;;13.60;93.20;;;;;;5096701;28;20035;-72
2023/07/06 08:01:24;;;;;;;1999.90;999.90;;;13.60;93.40;;;;;;5088898;28;20066;-71
2023/07/06 08:03:57;;;;;;;1999.90;999.90;;;13.60;93.50;;;;;;5096870;28;20040;-71
2023/07/06 08:06:24;;;;;;;1999.90;999.90;;;13.60;93.50;;;;;;5088914;28;20047;-70
2023/07/06 08:08:52;;;;;;;1999.90;999.90;;;13.70;93.30;;;;;;5086111;28;20023;-71
2023/07/06 08:11:23;;;;;;;1999.90;999.90;;;13.70;93.30;;;;;;5086401;28;20055;-70
2023/07/06 08:13:53;;;;;;;1999.90;999.90;;;13.60;93.30;;;;;;5084897;28;20081;-70
2023/07/06 08:16:21;;;;;;;1999.90;999.90;;;13.60;93.50;;;;;;5083793;28;20020;-72
2023/07/06 08:18:50;;;;;;;1999.90;999.90;;;13.70;93.50;;;;;;5089965;28;20043;-71
2023/07/06 08:21:19;;;;;;;1999.90;999.90;;;13.60;93.50;;;;;;5084593;28;20433;-70
2023/07/06 08:23:50;;;;;;;1999.90;999.90;;;13.60;93.50;;;;;;5091151;28;20123;-70
2023/07/06 08:26:18;;;;;;;1999.90;999.90;;;13.60;93.60;;;;;;5100220;28;20494;-70
2023/07/06 08:28:46;;;;;;;1999.90;999.90;;;13.50;93.70;;;;;;5087422;28;20025;-71
2023/07/06 08:31:21;;;;;;;1999.90;999.90;;;13.50;93.70;;;;;;5093811;28;20039;-70
2023/07/06 08:33:49;;;;;;;1999.90;999.90;;;13.50;93.60;;;;;;5095919;28;20074;-69
2023/07/06 08:36:21;;;;;;;1999.90;999.90;;;13.40;94.00;;;;;;5079731;28;20073;-69
2023/07/06 08:38:49;;;;;;;1999.90;999.90;;;13.40;93.70;;;;;;5087666;28;20038;-70
2023/07/06 08:41:29;;;;;;;1999.90;999.90;;;13.40;93.80;;;;;;5087881;28;20067;-71
2023/07/06 08:44:02;;;;;;;1999.90;999.90;;;13.30;93.90;;;;;;5093882;28;20032;-70
2023/07/06 08:46:38;;;;;;;1999.90;999.90;;;13.30;94.10;;;;;;5088114;28;20036;-71
2023/07/06 08:49:22;;;;;;;1999.90;999.90;;;13.20;94.10;;;;;;5092578;28;20114;-70
2023/07/06 08:51:51;;;;;;;1999.90;999.90;;;13.20;94.40;;;;;;5090180;28;20132;-70
2023/07/06 08:54:25;;;;;;;1999.90;999.90;;;13.20;94.50;;;;;;5093838;28;20017;-71
2023/07/06 08:56:53;;;;;;;1999.90;999.90;;;13.20;94.50;;;;;;5093430;28;20040;-70
2023/07/06 08:59:33;;;;;;;1999.90;999.90;;;13.20;94.60;;;;;;5093459;28;20039;-72
2023/07/06 09:02:24;;;;;;;1999.90;999.90;;;13.20;94.70;;;;;;5090510;28;20742;-72
2023/07/06 09:04:55;;;;;;;1999.90;999.90;;;13.10;94.80;;;;;;5089698;28;20044;-72
2023/07/06 09:07:39;;;;;;;1999.90;999.90;;;13.00;94.90;;;;;;5084408;28;20082;-69
2023/07/06 09:10:17;;;;;;;1999.90;999.90;;;13.00;95.00;;;;;;5090501;28;20028;-70
2023/07/06 09:12:45;;;;;;;1999.90;999.90;;;13.00;95.00;;;;;;5087494;28;20048;-70
2023/07/06 09:15:21;;;;;;;1999.90;999.90;;;12.80;95.20;;;;;;5083435;28;20157;-70
2023/07/06 09:17:50;;;;;;;1999.90;999.90;;;12.80;95.40;;;;;;5095360;28;20031;-73
2023/07/06 09:20:19;;;;;;;1999.90;999.90;;;12.60;95.60;;;;;;5082931;28;20483;-70
2023/07/06 09:22:48;;;;;;;1999.90;999.90;;;12.60;95.80;;;;;;5092657;28;20035;-72
2023/07/06 09:25:35;;;;;;;1999.90;999.90;;;12.50;96.00;;;;;;5086026;28;20040;-71
2023/07/06 09:28:07;;;;;;;1999.90;999.90;;;12.50;96.10;;;;;;5088641;28;20028;-71
2023/07/06 09:30:39;;;;;;;1999.90;999.90;;;12.50;96.40;;;;;;5082855;28;20047;-69
2023/07/06 09:33:25;;;;;;;1999.90;999.90;;;12.50;96.40;;;;;;5096089;28;20104;-71
2023/07/06 09:35:54;;;;;;;;;;;12.50;96.40;;;;;;5086536;28;20028;-70
2023/07/06 09:38:24;;;;;;;1999.90;999.90;;;12.50;96.40;;;;;;5089160;28;19938;-70
2023/07/06 09:40:52;;;;;;;1999.90;999.90;;;12.60;96.40;;;;;;5089997;28;20116;-74
2023/07/06 09:43:22;;;;;;;1999.90;999.90;;;12.60;96.60;;;;;;5098487;28;20036;-71
2023/07/06 09:45:52;;;;;;;1999.90;999.90;;;12.60;96.50;;;;;;5084695;28;20402;-71
2023/07/06 09:48:32;;;;;;;1999.90;999.90;;;12.60;96.60;;;;;;5089998;28;20024;-70
2023/07/06 09:51:05;;;;;;;1999.90;999.90;;;12.60;96.60;;;;;;5075378;28;20088;-72
2023/07/06 09:53:38;;;;;;;1999.90;999.90;;;12.60;96.80;;;;;;5081441;28;20502;-72
2023/07/06 09:56:12;;;;;;;1999.90;999.90;;;12.50;96.90;;;;;;5082336;28;20463;-72
2023/07/06 09:58:41;;;;;;;1999.90;999.90;;;12.50;97.00;;;;;;5102198;28;20020;-71
2023/07/06 10:01:37;;;;;;;1999.90;999.90;;;12.40;97.00;;;;;;5091412;28;20524;-72
2023/07/06 10:04:44;;;;;;;1999.90;999.90;;;12.30;97.20;;;;;;5093399;28;20048;-70
2023/07/06 10:07:23;;;;;;;;;;;12.20;97.50;;;;;;5088586;28;20069;-71
2023/07/06 10:10:30;;;;;;;1999.90;999.90;;;12.10;97.80;;;;;;5082523;28;19908;-71
2023/07/06 10:13:17;;;;;;;1999.90;999.90;;;12.00;97.80;;;;;;5109367;28;20473;-71
2023/07/06 10:16:03;;;;;;;1999.90;999.90;;;11.90;98.20;;;;;;5067107;28;20046;-70
2023/07/06 10:19:03;;;;;;;1999.90;999.90;;;11.90;98.40;;;;;;5102815;28;20041;-71
2023/07/06 10:22:01;;;;;;;1999.90;999.90;;;11.80;98.60;;;;;;5100648;28;20036;-72
2023/07/06 10:24:55;;;;;;;1999.90;999.90;;;11.70;98.60;;;;;;5084137;28;20031;-70
2023/07/06 10:27:33;;;;;;;1999.90;999.90;;;11.60;99.00;;;;;;5095902;28;20024;-68
2023/07/06 10:30:08;;;;;;;1999.90;999.90;;;11.50;99.30;;;;;;5098053;28;20791;-70
2023/07/06 10:32:45;;;;;;;1999.90;999.90;;;11.50;99.20;;;;;;5093732;28;20393;-71
2023/07/06 10:35:26;;;;;;;1999.90;999.90;;;11.40;99.50;;;;;;5090518;28;20491;-72
2023/07/06 10:37:54;;;;;;;1999.90;999.90;;;11.30;99.90;;;;;;5095946;28;20040;-72
2023/07/06 10:40:30;;;;;;;1999.90;999.90;;;11.20;99.90;;;;;;5095431;28;20102;-72
2023/07/06 10:43:16;;;;;;;1999.90;999.90;;;11.00;99.90;;;;;;5091053;28;20024;-72
2023/07/06 10:45:45;;;;;;;1999.90;999.90;;;11.00;99.90;;;;;;5093984;28;20462;-72
2023/07/06 10:48:28;;;;;;;1999.90;999.90;;;10.90;99.90;;;;;;5089705;28;20029;-72
2023/07/06 10:51:07;;;;;;;1999.90;999.90;;;10.90;99.90;;;;;;5093496;28;20448;-71
2023/07/06 10:53:42;;;;;;;1999.90;999.90;;;10.90;99.90;;;;;;5094539;28;20023;-71
2023/07/06 10:56:15;;;;;;;1999.90;999.90;;;10.90;99.90;;;;;;5092179;28;20027;-71
2023/07/06 10:59:03;;;;;;;1999.90;999.90;;;10.90;99.90;;;;;;5094071;28;20065;-70
2023/07/06 11:01:40;;;;;;;1999.90;999.90;;;10.80;99.90;;;;;;5095059;28;20049;-74
2023/07/06 11:04:41;;;;;;;1999.90;999.90;;;10.70;99.90;;;;;;5098937;28;20557;-73
2023/07/06 11:07:42;;;;;;;1999.90;999.90;;;10.50;99.90;;;;;;5088938;28;20082;-71
2023/07/06 11:10:33;;;;;;;1999.90;999.90;;;10.40;99.90;;;;;;5075761;28;20025;-73
2023/07/06 11:13:06;;;;;;;1999.90;999.90;;;10.40;99.90;;;;;;5078935;28;20107;-73
2023/07/06 11:15:40;;;;;;;1999.90;999.90;;;10.40;99.90;;;;;;5082808;28;20111;-73
2023/07/06 11:18:14;;;;;;;1999.90;999.90;;;10.30;99.90;;;;;;5085556;28;20765;-70
2023/07/06 11:20:44;;;;;;;1999.90;999.90;;;10.40;99.90;;;;;;5077462;28;20051;-73
2023/07/06 11:23:16;;;;;;;1999.90;999.90;;;10.30;99.90;;;;;;5083737;28;20039;-71
2023/07/06 11:25:50;;;;;;;1999.90;999.90;;;10.20;99.90;;;;;;5083339;28;20040;-70
2023/07/06 11:28:22;;;;;;;1999.90;999.90;;;10.10;99.90;;;;;;5084797;28;20028;-72
2023/07/06 11:31:18;;;;;;;1999.90;999.90;;;10.10;99.90;;;;;;5081030;28;20056;-71
2023/07/06 11:33:56;;;;;;;1999.90;999.90;;;10.00;99.90;;;;;;5054615;28;20036;-73
2023/07/06 11:36:39;;;;;;;1999.90;999.90;;;9.90;99.90;;;;;;5083671;28;20086;-73
2023/07/06 11:39:16;;;;;;;1999.90;999.90;;;9.90;99.90;;;;;;5080310;28;20082;-72
2023/07/06 11:41:53;;;;;;;1999.90;999.90;;;9.90;99.90;;;;;;5077284;28;20089;-75
2023/07/06 11:44:45;;;;;;;1999.90;999.90;;;9.90;99.90;;;;;;5081971;28;20028;-73
2023/07/06 11:47:18;;;;;;;1999.90;999.90;;;9.90;99.90;;;;;;5089196;28;20070;-74
2023/07/06 11:49:56;;;;;;;1999.90;999.90;;;10.00;99.90;;;;;;5081753;28;20391;-72
2023/07/06 11:52:48;;;;;;;1999.90;999.90;;;10.00;99.90;;;;;;5090457;28;20089;-72
2023/07/06 11:55:31;;;;;;;1999.90;999.90;;;9.90;99.90;;;;;;5089921;28;20032;-70
2023/07/06 11:58:05;;;;;;;1999.90;999.90;;;10.00;99.90;;;;;;5091835;28;20020;-74
2023/07/06 12:00:48;;;;;;;1999.90;999.90;;;10.00;99.90;;;;;;5083811;28;20024;-72
2023/07/06 12:03:16;;;;;;;1999.90;999.90;;;9.90;99.90;;;;;;5087840;28;20060;-73
2023/07/06 12:05:48;;;;;;;1999.90;999.90;;;9.90;99.90;;;;;;5080748;28;20040;-73
2023/07/06 12:08:35;;;;;;;1999.90;999.90;;;9.90;99.90;;;;;;5091103;28;20070;-73
2023/07/06 12:11:03;;;;;;;;;;;10.00;99.90;;;;;;5086132;28;20027;-70
2023/07/06 12:13:35;;;;;;;1999.90;999.90;;;10.00;99.90;;;;;;5097975;28;19998;-71
2023/07/06 12:16:15;;;;;;;1999.90;999.90;;;10.10;99.90;;;;;;5083085;28;20028;-71
2023/07/06 12:18:47;;;;;;;1999.90;999.90;;;10.20;99.90;;;;;;5085445;28;20032;-73
2023/07/06 12:21:38;;;;;;;1999.90;999.90;;;10.20;99.90;;;;;;5089978;28;20032;-73
2023/07/06 12:24:11;;;;;;;1999.90;999.90;;;10.30;99.90;;;;;;5082483;28;20032;-72
2023/07/06 12:26:47;;;;;;;1999.90;999.90;;;10.40;99.90;;;;;;5088308;28;20501;-71